Time;durP1;ratioP1;P1;durP2;ratioP2;P2;SDS_P1;SDS_P2;PMS_P1;PMS_P2;Temp;Humidity;BMP_temperature;BMP_pressure;BME280_temperature;BME280_humidity;BME280_pressure;Samples;Min_cycle;Max_cycle;Signal;HPM_P1;HPM_P2
2022/10/07 05:00:24;;;;;;;4.43;3.40;;;15.80;97.20;;;;;;1701652;29;20312;-72
2022/10/07 05:01:15;;;;;;;14.27;4.60;;;15.80;97.20;;;;;;1701622;29;20291;-72
2022/10/07 05:02:07;;;;;;;5.07;3.33;;;15.80;97.20;;;;;;1701845;29;20258;-72
2022/10/07 05:02:58;;;;;;;5.43;3.25;;;15.80;97.20;;;;;;1701571;29;20473;-72
2022/10/07 05:03:50;;;;;;;6.03;3.60;;;15.80;97.20;;;;;;1701721;29;20199;-72
2022/10/07 05:04:40;;;;;;;7.65;3.53;;;15.70;97.20;;;;;;1701425;29;20199;-72
2022/10/07 05:05:32;;;;;;;3.17;2.87;;;15.70;97.20;;;;;;1701645;29;20233;-72
2022/10/07 05:06:23;;;;;;;3.22;2.90;;;15.70;97.20;;;;;;1701266;29;20199;-71
2022/10/07 05:07:15;;;;;;;13.10;3.63;;;15.70;97.20;;;;;;1701636;29;20210;-72
2022/10/07 05:08:07;;;;;;;5.00;3.38;;;15.70;97.20;;;;;;1701656;29;20249;-72
2022/10/07 05:08:59;;;;;;;6.68;4.10;;;15.70;97.20;;;;;;1701754;29;20682;-72
2022/10/07 05:09:50;;;;;;;8.15;4.50;;;15.70;97.20;;;;;;1701650;29;20210;-72
2022/10/07 05:10:42;;;;;;;6.97;3.27;;;15.70;97.20;;;;;;1701572;29;20215;-72
2022/10/07 05:11:33;;;;;;;10.60;3.75;;;15.70;97.20;;;;;;1701658;29;20210;-72
2022/10/07 05:12:25;;;;;;;7.90;3.60;;;15.70;97.20;;;;;;1701592;29;20214;-72
2022/10/07 05:13:16;;;;;;;5.13;3.35;;;15.70;97.20;;;;;;1701576;29;20211;-72
2022/10/07 05:14:07;;;;;;;6.60;3.20;;;15.70;97.20;;;;;;1701661;29;20234;-72
2022/10/07 05:15:00;;;;;;;5.00;3.70;;;15.70;97.20;;;;;;1701247;29;20210;-72
2022/10/07 05:15:56;;;;;;;5.28;3.22;;;15.70;97.20;;;;;;1701388;29;20281;-72
2022/10/07 05:18:38;;;;;;;4.80;3.42;;;15.70;97.20;;;;;;1701382;29;20199;-71
2022/10/07 05:19:29;;;;;;;6.45;3.35;;;15.60;97.20;;;;;;1698713;29;20211;-71
2022/10/07 05:20:20;;;;;;;9.70;3.20;;;15.60;97.20;;;;;;1697591;29;20196;-72
2022/10/07 05:21:11;;;;;;;6.63;3.50;;;15.60;97.20;;;;;;1706935;28;20450;-71
2022/10/07 05:22:03;;;;;;;7.53;4.30;;;15.60;97.20;;;;;;1707488;29;20206;-72
2022/10/07 05:22:54;;;;;;;4.50;3.30;;;15.60;97.20;;;;;;1702810;29;20214;-72
2022/10/07 05:23:45;;;;;;;4.43;3.30;;;15.60;97.20;;;;;;1701472;29;20213;-72
2022/10/07 05:24:36;;;;;;;8.45;3.40;;;15.60;97.20;;;;;;1701364;29;20206;-72
2022/10/07 05:25:27;;;;;;;5.83;2.80;;;15.60;97.20;;;;;;1700544;29;20199;-72
2022/10/07 05:26:19;;;;;;;6.07;3.53;;;15.60;97.20;;;;;;1701303;29;20229;-72
2022/10/07 05:27:09;;;;;;;3.97;3.33;;;15.60;97.20;;;;;;1700639;29;20462;-72
2022/10/07 05:28:00;;;;;;;5.30;3.47;;;15.60;97.20;;;;;;1701127;29;20195;-72
2022/10/07 05:28:54;;;;;;;4.90;3.37;;;15.60;97.20;;;;;;1701320;29;20230;-72
2022/10/07 05:29:45;;;;;;;7.20;3.50;;;15.60;97.20;;;;;;1701275;29;20207;-72
2022/10/07 05:30:37;;;;;;;5.90;3.60;;;15.60;97.20;;;;;;1700201;29;20367;-72
2022/10/07 05:31:29;;;;;;;9.82;3.35;;;15.60;97.20;;;;;;1701316;29;20207;-72
2022/10/07 05:32:21;;;;;;;5.28;3.00;;;15.60;97.20;;;;;;1701205;29;20206;-72
2022/10/07 05:33:11;;;;;;;5.50;3.28;;;15.60;97.20;;;;;;1701355;29;20258;-72
2022/10/07 05:34:03;;;;;;;5.17;3.80;;;15.60;97.20;;;;;;1701310;29;20290;-72
2022/10/07 05:34:54;;;;;;;8.45;3.85;;;15.60;97.20;;;;;;1700809;29;20207;-72
2022/10/07 05:35:46;;;;;;;7.30;3.63;;;15.60;97.20;;;;;;1701359;29;20213;-73
2022/10/07 05:36:37;;;;;;;6.72;3.72;;;15.60;97.20;;;;;;1701074;29;20673;-72
2022/10/07 05:37:29;;;;;;;6.57;3.65;;;15.60;97.20;;;;;;1700756;29;20199;-72
2022/10/07 05:38:20;;;;;;;5.30;3.53;;;15.60;97.20;;;;;;1701083;29;20297;-72
2022/10/07 05:39:12;;;;;;;5.63;3.80;;;15.60;97.20;;;;;;1701221;29;20211;-72
2022/10/07 05:40:03;;;;;;;4.47;3.47;;;15.60;97.20;;;;;;1701316;29;20211;-72
2022/10/07 05:40:58;;;;;;;5.18;3.83;;;15.60;97.20;;;;;;1701149;29;20230;-72
2022/10/07 05:41:49;;;;;;;6.70;3.72;;;15.60;97.20;;;;;;1701303;29;20629;-72
2022/10/07 05:42:40;;;;;;;6.53;3.83;;;15.60;97.20;;;;;;1701237;29;20644;-72
2022/10/07 05:43:34;;;;;;;4.80;3.60;;;15.60;97.20;;;;;;1701213;29;20688;-72
2022/10/07 05:44:25;;;;;;;6.28;3.88;;;15.60;97.20;;;;;;1701309;29;20231;-73
2022/10/07 05:45:16;;;;;;;6.18;3.75;;;15.70;97.20;;;;;;1701062;29;20199;-72
2022/10/07 05:46:11;;;;;;;6.80;4.20;;;15.60;97.20;;;;;;1701080;29;20227;-72
2022/10/07 05:47:03;;;;;;;6.88;4.13;;;15.70;97.20;;;;;;1699915;29;20462;-72
2022/10/07 05:47:56;;;;;;;5.40;4.28;;;15.70;97.20;;;;;;1700597;29;20214;-72
2022/10/07 05:48:48;;;;;;;6.05;3.65;;;15.70;97.20;;;;;;1700630;29;20207;-72
2022/10/07 05:49:40;;;;;;;8.45;4.30;;;15.70;97.20;;;;;;1700606;29;20196;-72
2022/10/07 05:50:31;;;;;;;7.32;4.10;;;15.70;97.20;;;;;;1700448;29;20658;-72
2022/10/07 05:51:24;;;;;;;6.30;3.70;;;15.70;97.20;;;;;;1700985;29;20203;-72
2022/10/07 05:52:15;;;;;;;4.75;3.90;;;15.70;97.20;;;;;;1701249;29;20210;-72
2022/10/07 05:53:07;;;;;;;7.90;3.83;;;15.70;97.20;;;;;;1701326;29;20213;-72
2022/10/07 05:53:58;;;;;;;4.30;3.50;;;15.70;97.20;;;;;;1701328;29;20294;-72
2022/10/07 05:54:50;;;;;;;5.03;3.70;;;15.60;97.20;;;;;;1700561;29;20199;-72
2022/10/07 05:55:41;;;;;;;8.00;3.88;;;15.70;97.20;;;;;;1700763;29;20242;-72
2022/10/07 05:56:33;;;;;;;6.23;4.20;;;15.60;97.20;;;;;;1701201;29;20214;-72
2022/10/07 05:57:24;;;;;;;6.63;4.28;;;15.70;97.20;;;;;;1700640;29;20685;-72
2022/10/07 05:58:16;;;;;;;6.63;3.70;;;15.70;97.20;;;;;;1701122;29;20585;-72
2022/10/07 05:59:06;;;;;;;5.43;4.00;;;15.70;97.20;;;;;;1701296;29;20215;-72
2022/10/07 05:59:58;;;;;;;5.30;3.60;;;15.70;97.20;;;;;;1701231;29;20203;-72
2022/10/07 06:00:52;;;;;;;4.65;3.70;;;15.70;97.20;;;;;;1701241;29;20223;-73
2022/10/07 06:01:44;;;;;;;6.38;3.95;;;15.70;97.20;;;;;;1701226;29;20595;-73
2022/10/07 06:02:37;;;;;;;7.07;3.85;;;15.70;97.20;;;;;;1701284;29;20203;-72
2022/10/07 06:03:29;;;;;;;5.45;3.85;;;15.70;97.20;;;;;;1701295;29;20826;-72
2022/10/07 06:04:20;;;;;;;4.85;3.63;;;15.70;97.20;;;;;;1701253;29;20203;-72
2022/10/07 06:05:11;;;;;;;5.63;3.80;;;15.70;97.20;;;;;;1701025;29;20203;-72
2022/10/07 06:06:03;;;;;;;6.03;4.03;;;15.70;97.20;;;;;;1701089;29;20223;-72
2022/10/07 06:06:54;;;;;;;10.98;3.95;;;15.70;97.20;;;;;;1700428;29;20222;-72
2022/10/07 06:07:45;;;;;;;4.90;3.85;;;15.70;97.20;;;;;;1701210;29;20226;-72
2022/10/07 06:08:37;;;;;;;8.70;4.07;;;15.70;97.20;;;;;;1700955;29;20207;-72
2022/10/07 06:13:22;;;;;;;6.35;3.88;;;15.70;97.20;;;;;;1689066;29;20227;-72
2022/10/07 06:14:15;;;;;;;3.85;3.30;;;15.70;97.20;;;;;;1700355;29;20703;-72
2022/10/07 06:15:08;;;;;;;7.18;3.70;;;15.70;97.20;;;;;;1700330;29;20207;-72
2022/10/07 06:16:01;;;;;;;9.50;4.15;;;15.70;97.20;;;;;;1700039;29;20250;-72
2022/10/07 06:16:52;;;;;;;6.70;4.57;;;15.70;97.20;;;;;;1699574;29;20262;-72
2022/10/07 06:17:45;;;;;;;5.07;3.87;;;15.70;97.20;;;;;;1699871;29;20203;-72
2022/10/07 06:18:36;;;;;;;7.97;5.50;;;15.70;97.20;;;;;;1694462;29;20211;-72
2022/10/07 06:19:28;;;;;;;6.93;5.43;;;15.70;97.20;;;;;;1694641;29;20206;-72
2022/10/07 06:20:18;;;;;;;11.85;6.30;;;15.70;97.20;;;;;;1694444;29;20969;-72
2022/10/07 06:21:11;;;;;;;8.50;6.20;;;15.70;97.20;;;;;;1694641;29;20578;-72
2022/10/07 06:22:02;;;;;;;8.25;6.13;;;15.80;97.20;;;;;;1700621;29;20203;-73
2022/10/07 06:22:54;;;;;;;6.40;5.47;;;15.80;97.20;;;;;;1701168;29;20227;-73
2022/10/07 06:23:50;;;;;;;10.30;5.85;;;15.80;97.20;;;;;;1701164;29;20830;-73
2022/10/07 06:24:42;;;;;;;11.15;5.93;;;15.80;97.20;;;;;;1701248;29;20262;-73
2022/10/07 06:25:33;;;;;;;5.82;4.75;;;15.80;97.20;;;;;;1701169;29;20207;-72
2022/10/07 06:26:25;;;;;;;7.25;4.90;;;15.80;97.20;;;;;;1698562;29;21084;-72
2022/10/07 06:27:15;;;;;;;8.77;4.20;;;15.80;97.20;;;;;;1700273;29;20211;-72
2022/10/07 06:28:07;;;;;;;6.97;5.00;;;15.80;97.20;;;;;;1701079;29;20691;-71
2022/10/07 06:28:58;;;;;;;6.53;4.97;;;15.80;97.20;;;;;;1701824;29;20657;-72
2022/10/07 06:29:50;;;;;;;6.80;4.43;;;15.90;97.20;;;;;;1705613;29;20599;-72
2022/10/07 06:30:41;;;;;;;9.27;5.00;;;15.90;97.20;;;;;;1703930;28;20238;-72
2022/10/07 06:31:32;;;;;;;10.68;4.75;;;15.90;97.20;;;;;;1700626;29;20226;-73
2022/10/07 06:32:23;;;;;;;5.82;4.78;;;15.90;97.20;;;;;;1700949;29;20207;-75
2022/10/07 06:33:17;;;;;;;9.00;5.57;;;15.90;97.20;;;;;;1700958;29;20280;-72
2022/10/07 06:34:08;;;;;;;7.22;4.78;;;15.90;97.20;;;;;;1700891;29;20451;-73
2022/10/07 06:34:59;;;;;;;7.40;4.90;;;15.80;97.20;;;;;;1700928;29;20203;-74
2022/10/07 06:35:54;;;;;;;7.07;4.53;;;15.80;97.20;;;;;;1700935;29;20211;-74
2022/10/07 06:36:46;;;;;;;5.47;4.65;;;15.80;97.20;;;;;;1700141;29;20211;-73
2022/10/07 06:37:38;;;;;;;6.78;4.60;;;15.90;97.20;;;;;;1700859;29;20210;-73
2022/10/07 06:38:29;;;;;;;6.10;4.65;;;15.90;97.20;;;;;;1700934;29;20572;-73
2022/10/07 06:39:20;;;;;;;6.72;4.60;;;15.90;97.20;;;;;;1701011;29;20215;-73
2022/10/07 06:40:12;;;;;;;6.20;4.00;;;15.90;97.20;;;;;;1700779;29;20221;-73
2022/10/07 06:41:04;;;;;;;8.82;4.85;;;15.90;97.20;;;;;;1700952;29;20207;-73
2022/10/07 06:41:56;;;;;;;8.15;4.35;;;15.90;97.20;;;;;;1700485;29;20600;-73
2022/10/07 06:42:47;;;;;;;6.15;5.55;;;15.90;97.20;;;;;;1700905;29;20238;-74
2022/10/07 06:43:38;;;;;;;7.90;4.93;;;15.90;97.20;;;;;;1700859;29;20210;-74
2022/10/07 06:44:30;;;;;;;6.28;4.60;;;15.90;97.20;;;;;;1700951;29;20211;-74
2022/10/07 06:45:22;;;;;;;6.25;4.57;;;15.90;97.20;;;;;;1700858;29;20203;-74
2022/10/07 06:46:15;;;;;;;8.02;4.50;;;15.90;97.20;;;;;;1700642;29;20238;-74
2022/10/07 06:47:06;;;;;;;6.63;4.50;;;15.90;97.20;;;;;;1699592;29;20736;-74
2022/10/07 06:47:57;;;;;;;8.15;4.75;;;15.90;97.20;;;;;;1700327;29;20677;-74
2022/10/07 06:48:50;;;;;;;10.43;5.20;;;16.00;97.20;;;;;;1700301;29;20802;-73
2022/10/07 06:49:41;;;;;;;5.70;4.50;;;16.00;97.20;;;;;;1700342;29;20211;-73
2022/10/07 06:50:32;;;;;;;5.50;4.50;;;16.00;97.20;;;;;;1700033;29;20219;-73
2022/10/07 06:51:23;;;;;;;5.20;4.70;;;16.00;97.20;;;;;;1701025;29;20211;-75
2022/10/07 06:52:15;;;;;;;5.83;4.20;;;16.00;97.20;;;;;;1698390;29;20229;-73
2022/10/07 06:53:06;;;;;;;8.70;5.50;;;16.00;97.20;;;;;;1700821;29;20450;-73
2022/10/07 06:53:58;;;;;;;8.20;4.87;;;16.00;97.20;;;;;;1706210;29;20202;-73
2022/10/07 06:54:48;;;;;;;6.75;4.70;;;16.00;97.20;;;;;;1705724;29;20245;-73
2022/10/07 06:55:40;;;;;;;7.23;4.30;;;16.00;97.20;;;;;;1704130;29;20188;-73
2022/10/07 06:56:31;;;;;;;7.22;4.53;;;16.00;97.20;;;;;;1702787;29;20207;-73
2022/10/07 06:57:22;;;;;;;7.43;5.20;;;16.00;97.20;;;;;;1706606;29;20205;-73
2022/10/07 06:58:13;;;;;;;10.40;4.55;;;16.10;97.20;;;;;;1707346;29;20214;-73
2022/10/07 06:59:05;;;;;;;6.80;4.13;;;16.10;97.20;;;;;;1707434;28;20760;-73
2022/10/07 06:59:55;;;;;;;7.30;4.00;;;16.10;97.20;;;;;;1707301;29;20660;-74
2022/10/07 07:00:48;;;;;;;7.60;4.27;;;16.10;97.20;;;;;;1701422;29;20856;-73
2022/10/07 07:01:39;;;;;;;5.03;4.25;;;16.10;97.20;;;;;;1700676;29;20199;-73
2022/10/07 07:02:32;;;;;;;10.07;4.13;;;16.10;97.20;;;;;;1700682;29;20262;-73
2022/10/07 07:03:23;;;;;;;7.95;5.15;;;16.10;97.20;;;;;;1700699;29;20210;-73
2022/10/07 07:04:16;;;;;;;7.45;4.60;;;16.10;97.20;;;;;;1700654;29;20226;-73
2022/10/07 07:05:12;;;;;;;5.13;3.88;;;16.10;97.20;;;;;;1700685;29;20697;-73
2022/10/07 07:06:04;;;;;;;6.05;4.20;;;16.10;97.20;;;;;;1700624;29;20184;-73
2022/10/07 07:06:54;;;;;;;8.38;4.43;;;16.10;97.20;;;;;;1699966;29;20211;-73
2022/10/07 07:07:46;;;;;;;5.87;4.27;;;16.20;97.20;;;;;;1700656;29;20225;-73
2022/10/07 07:08:39;;;;;;;6.28;4.20;;;16.20;97.20;;;;;;1700546;29;20214;-73
2022/10/07 07:09:32;;;;;;;7.22;4.13;;;16.20;97.20;;;;;;1700751;29;20282;-73
2022/10/07 07:10:23;;;;;;;6.13;4.45;;;16.20;97.20;;;;;;1700441;29;20212;-73
2022/10/07 07:12:24;;;;;;;7.75;5.10;;;16.20;97.20;;;;;;1700782;29;20186;-73
2022/10/07 07:13:16;;;;;;;7.50;4.30;;;16.30;97.20;;;;;;1700736;29;20207;-73
2022/10/07 07:14:10;;;;;;;5.18;4.30;;;16.30;97.20;;;;;;1700615;29;20325;-73
2022/10/07 07:15:01;;;;;;;5.75;4.30;;;16.30;97.20;;;;;;1700839;29;20265;-73
2022/10/07 07:15:57;;;;;;;6.60;4.13;;;16.40;97.20;;;;;;1700000;29;20242;-73
2022/10/07 07:16:48;;;;;;;7.25;4.45;;;16.40;97.20;;;;;;1699130;29;20199;-73
2022/10/07 07:17:40;;;;;;;5.80;3.80;;;16.40;97.20;;;;;;1699667;29;20279;-73
2022/10/07 07:18:30;;;;;;;7.18;4.65;;;16.40;97.20;;;;;;1700081;29;20210;-73
2022/10/07 07:19:23;;;;;;;9.90;4.43;;;16.40;97.20;;;;;;1700136;29;20207;-73
2022/10/07 07:20:15;;;;;;;5.82;4.25;;;16.40;97.20;;;;;;1700245;29;20203;-73
2022/10/07 07:21:06;;;;;;;6.20;4.00;;;16.40;97.20;;;;;;1700728;29;20207;-73
2022/10/07 07:21:57;;;;;;;9.55;4.18;;;16.40;97.20;;;;;;1700459;29;20703;-73
2022/10/07 07:22:51;;;;;;;7.20;4.80;;;16.50;97.20;;;;;;1700178;29;20342;-73
2022/10/07 07:23:41;;;;;;;6.30;4.25;;;16.50;97.20;;;;;;1700419;29;20207;-73
2022/10/07 07:24:33;;;;;;;8.70;4.50;;;16.50;97.20;;;;;;1700785;29;20199;-73
2022/10/07 07:25:24;;;;;;;7.13;5.20;;;16.50;97.20;;;;;;1700772;29;20210;-73
2022/10/07 07:26:17;;;;;;;10.60;4.70;;;16.50;97.20;;;;;;1700594;29;20209;-73
2022/10/07 07:27:07;;;;;;;8.20;4.47;;;16.60;97.20;;;;;;1700055;29;20605;-73
2022/10/07 07:28:00;;;;;;;8.30;4.90;;;16.60;97.20;;;;;;1700654;29;20567;-73
2022/10/07 07:28:51;;;;;;;7.18;4.60;;;16.60;97.20;;;;;;1700761;29;20297;-73
2022/10/07 07:29:43;;;;;;;6.20;4.40;;;16.60;97.20;;;;;;1700715;29;20207;-73
2022/10/07 07:30:35;;;;;;;7.10;4.13;;;16.60;97.20;;;;;;1700286;29;20238;-73
2022/10/07 07:31:29;;;;;;;7.47;4.85;;;16.70;97.20;;;;;;1700764;29;20214;-73
2022/10/07 07:32:20;;;;;;;5.00;4.10;;;16.70;97.20;;;;;;1700647;29;20203;-73
2022/10/07 07:33:11;;;;;;;6.30;4.03;;;16.70;97.20;;;;;;1700783;29;20213;-73
2022/10/07 07:34:06;;;;;;;7.53;4.70;;;16.70;97.20;;;;;;1700692;29;20458;-73
2022/10/07 07:35:00;;;;;;;8.57;4.70;;;16.70;97.20;;;;;;1699684;29;20286;-73
2022/10/07 07:35:51;;;;;;;7.75;4.68;;;16.70;97.20;;;;;;1700466;29;20214;-73
2022/10/07 07:36:45;;;;;;;7.80;4.50;;;16.70;97.20;;;;;;1699915;29;20207;-73
2022/10/07 07:37:36;;;;;;;6.63;4.50;;;16.70;97.20;;;;;;1700674;29;20203;-73
2022/10/07 07:38:27;;;;;;;5.97;4.60;;;16.70;97.20;;;;;;1700614;29;20207;-73
2022/10/07 07:39:18;;;;;;;11.85;5.28;;;16.70;97.20;;;;;;1700622;29;20214;-73
2022/10/07 07:40:10;;;;;;;10.75;4.70;;;16.70;97.20;;;;;;1700717;29;20230;-73
2022/10/07 07:41:04;;;;;;;7.63;5.57;;;16.70;97.20;;;;;;1700408;29;20211;-73
2022/10/07 07:41:56;;;;;;;8.35;4.78;;;16.70;97.20;;;;;;1700656;29;20195;-73
2022/10/07 07:42:47;;;;;;;7.45;5.90;;;16.80;97.20;;;;;;1700672;29;20211;-73
2022/10/07 07:43:38;;;;;;;9.70;4.63;;;16.80;97.20;;;;;;1700655;29;20195;-73
2022/10/07 07:44:29;;;;;;;8.23;5.18;;;16.80;97.20;;;;;;1700356;29;20453;-73
2022/10/07 07:45:21;;;;;;;10.80;5.37;;;16.80;97.20;;;;;;1699871;29;20197;-73
2022/10/07 07:46:12;;;;;;;8.30;4.53;;;16.80;97.20;;;;;;1700333;29;20450;-73
2022/10/07 07:47:05;;;;;;;6.15;4.20;;;16.80;97.20;;;;;;1699903;29;20227;-73
2022/10/07 07:47:56;;;;;;;6.63;4.65;;;16.90;97.20;;;;;;1700586;29;20661;-73
2022/10/07 07:48:48;;;;;;;5.60;4.80;;;16.90;97.20;;;;;;1700539;29;20665;-73
2022/10/07 07:49:39;;;;;;;7.68;4.80;;;16.90;97.20;;;;;;1700526;29;20451;-73
2022/10/07 07:50:32;;;;;;;8.10;5.73;;;17.00;97.20;;;;;;1700363;29;20288;-73
2022/10/07 07:51:23;;;;;;;6.35;5.00;;;17.00;97.20;;;;;;1700642;29;20215;-73
2022/10/07 07:52:15;;;;;;;6.40;4.53;;;17.00;97.20;;;;;;1700591;29;20211;-73
2022/10/07 07:53:06;;;;;;;7.60;4.72;;;17.10;97.20;;;;;;1700430;29;20532;-73
2022/10/07 07:54:00;;;;;;;6.33;4.80;;;17.10;97.20;;;;;;1700428;29;20214;-73
2022/10/07 07:54:51;;;;;;;6.55;5.32;;;17.10;97.20;;;;;;1700562;29;20314;-73
2022/10/07 07:55:52;;;;;;;6.80;5.30;;;17.10;97.20;;;;;;1700702;29;20191;-73
2022/10/07 07:56:43;;;;;;;11.05;5.95;;;17.20;97.20;;;;;;1699939;29;20196;-73
2022/10/07 07:57:35;;;;;;;9.13;4.90;;;17.20;97.20;;;;;;1700605;29;20199;-73
2022/10/07 07:58:26;;;;;;;10.80;5.28;;;17.20;97.20;;;;;;1700590;29;20211;-73
2022/10/07 07:59:18;;;;;;;6.40;5.43;;;17.20;97.20;;;;;;1700629;29;20352;-73
2022/10/07 08:00:10;;;;;;;5.63;5.10;;;17.20;97.20;;;;;;1700681;29;20211;-73
2022/10/07 08:01:04;;;;;;;6.65;5.15;;;17.30;97.20;;;;;;1700185;29;20234;-73
2022/10/07 08:01:55;;;;;;;5.57;4.75;;;17.30;97.20;;;;;;1700379;29;20214;-73
2022/10/07 08:02:47;;;;;;;11.07;6.10;;;17.30;97.20;;;;;;1700693;29;20293;-73
2022/10/07 08:03:41;;;;;;;5.90;4.90;;;17.30;97.20;;;;;;1700526;29;20239;-73
2022/10/07 08:04:33;;;;;;;7.55;5.25;;;17.40;97.20;;;;;;1700602;29;20207;-73
2022/10/07 08:05:24;;;;;;;8.85;5.13;;;17.40;97.20;;;;;;1700583;29;20207;-73
2022/10/07 08:06:20;;;;;;;8.07;4.50;;;17.40;97.20;;;;;;1700482;29;20209;-73
2022/10/07 08:07:11;;;;;;;5.60;5.00;;;17.50;97.20;;;;;;1699811;29;20230;-73
2022/10/07 08:08:03;;;;;;;6.57;5.35;;;17.50;97.20;;;;;;1700477;29;20286;-73
2022/10/07 08:08:58;;;;;;;8.23;4.28;;;17.50;97.20;;;;;;1700476;29;20211;-73
2022/10/07 08:09:49;;;;;;;6.65;5.13;;;17.50;97.20;;;;;;1700569;29;20207;-72
2022/10/07 08:10:41;;;;;;;5.68;4.93;;;17.50;97.20;;;;;;1700128;29;20250;-72
2022/10/07 08:11:33;;;;;;;6.40;4.75;;;17.60;97.20;;;;;;1700419;29;20666;-73
2022/10/07 08:12:24;;;;;;;14.35;5.55;;;17.60;97.20;;;;;;1697564;29;20669;-73
2022/10/07 08:13:16;;;;;;;8.43;4.63;;;17.70;97.20;;;;;;1700050;29;20741;-73
2022/10/07 08:14:08;;;;;;;9.73;5.25;;;17.70;97.20;;;;;;1700494;29;20826;-73
2022/10/07 08:14:59;;;;;;;7.65;4.95;;;17.80;97.20;;;;;;1700341;29;20199;-73
2022/10/07 08:15:56;;;;;;;8.48;4.70;;;17.80;97.20;;;;;;1700278;29;20737;-73
2022/10/07 08:16:48;;;;;;;5.75;5.00;;;17.80;97.20;;;;;;1697349;29;20195;-72
2022/10/07 08:17:40;;;;;;;5.60;4.60;;;17.80;97.20;;;;;;1700123;29;20196;-73
2022/10/07 08:18:31;;;;;;;7.72;4.70;;;17.90;97.20;;;;;;1700045;29;20203;-73
2022/10/07 08:19:22;;;;;;;5.10;4.10;;;17.90;97.20;;;;;;1700056;29;20205;-72
2022/10/07 08:20:14;;;;;;;8.35;4.30;;;17.90;97.20;;;;;;1699956;29;20205;-72
2022/10/07 08:21:07;;;;;;;10.50;4.65;;;17.90;97.20;;;;;;1698710;29;20203;-72
2022/10/07 08:22:00;;;;;;;6.45;4.55;;;17.90;97.20;;;;;;1699982;29;20207;-73
2022/10/07 08:22:51;;;;;;;5.20;4.10;;;17.90;97.20;;;;;;1700132;29;20266;-72
2022/10/07 08:23:42;;;;;;;6.87;4.50;;;18.00;97.20;;;;;;1700142;29;20204;-72
2022/10/07 08:24:33;;;;;;;9.10;3.90;;;18.00;97.20;;;;;;1700051;29;20203;-73
2022/10/07 08:25:27;;;;;;;5.30;3.80;;;18.00;97.20;;;;;;1700107;29;20195;-72
2022/10/07 08:26:18;;;;;;;9.50;4.85;;;18.00;97.20;;;;;;1700010;29;20447;-72
2022/10/07 08:27:09;;;;;;;7.10;4.13;;;18.00;97.20;;;;;;1699241;29;20227;-72
2022/10/07 08:28:02;;;;;;;5.40;4.03;;;18.00;97.20;;;;;;1699904;29;20199;-72
2022/10/07 08:28:54;;;;;;;5.93;4.28;;;18.00;97.20;;;;;;1700321;29;20218;-72
2022/10/07 08:29:45;;;;;;;4.47;3.90;;;18.00;97.20;;;;;;1700571;29;20708;-73
2022/10/07 08:30:37;;;;;;;7.07;4.05;;;18.00;97.20;;;;;;1700018;29;20233;-73
2022/10/07 08:31:28;;;;;;;7.05;4.00;;;18.00;97.20;;;;;;1700542;29;20203;-73
2022/10/07 08:32:20;;;;;;;7.82;3.17;;;18.10;97.20;;;;;;1700527;29;20206;-72
2022/10/07 08:33:11;;;;;;;5.43;3.72;;;18.10;97.20;;;;;;1700610;29;20207;-73
2022/10/07 08:34:05;;;;;;;7.60;4.83;;;18.10;97.20;;;;;;1700575;29;20213;-73
2022/10/07 08:34:55;;;;;;;7.18;3.58;;;18.10;97.20;;;;;;1700492;29;20215;-73
2022/10/07 08:35:50;;;;;;;8.93;3.63;;;18.20;97.20;;;;;;1700561;29;20231;-72
2022/10/07 08:36:45;;;;;;;6.05;4.00;;;18.20;97.20;;;;;;1700265;29;20355;-73
2022/10/07 08:37:38;;;;;;;6.03;3.90;;;18.30;97.20;;;;;;1700518;29;20669;-72
2022/10/07 08:38:30;;;;;;;4.60;3.70;;;18.30;97.20;;;;;;1700311;29;20203;-73
2022/10/07 08:39:25;;;;;;;6.55;4.65;;;18.40;97.20;;;;;;1700320;29;20203;-73
2022/10/07 08:40:16;;;;;;;6.70;4.53;;;18.40;97.20;;;;;;1700380;29;20355;-73
2022/10/07 08:41:21;;;;;;;6.30;4.75;;;18.40;97.20;;;;;;1700188;28;20195;-73
2022/10/07 08:42:22;;;;;;;5.63;4.43;;;18.50;97.20;;;;;;1700535;29;20218;-73
2022/10/07 08:43:14;;;;;;;6.07;4.50;;;18.50;97.20;;;;;;1700539;29;20274;-73
2022/10/07 08:44:24;;;;;;;12.00;5.03;;;18.50;97.20;;;;;;1700482;29;20208;-72
2022/10/07 08:45:28;;;;;;;5.25;4.68;;;18.50;97.20;;;;;;1700489;29;20201;-72
2022/10/07 08:46:25;;;;;;;8.20;4.50;;;18.50;97.20;;;;;;1700446;29;20214;-73
2022/10/07 08:47:25;;;;;;;6.10;4.70;;;18.50;97.20;;;;;;1699617;29;20231;-73
2022/10/07 08:48:21;;;;;;;7.13;4.60;;;18.50;97.20;;;;;;1700333;29;20203;-73
2022/10/07 08:49:16;;;;;;;5.30;4.65;;;18.60;97.20;;;;;;1700528;29;20573;-73
2022/10/07 08:50:12;;;;;;;6.70;4.78;;;18.60;97.20;;;;;;1700426;29;20222;-73
2022/10/07 08:51:13;;;;;;;8.27;4.40;;;18.70;97.20;;;;;;1700128;29;20279;-73
2022/10/07 08:52:21;;;;;;;6.78;4.60;;;18.70;97.20;;;;;;1700512;29;20614;-73
2022/10/07 08:53:29;;;;;;;7.40;5.13;;;18.80;97.20;;;;;;1706652;29;20233;-73
2022/10/07 08:54:26;;;;;;;5.57;5.07;;;18.90;97.20;;;;;;1706016;29;20215;-73
2022/10/07 08:55:25;;;;;;;5.63;4.43;;;18.90;97.20;;;;;;1700489;29;20196;-73
2022/10/07 08:56:18;;;;;;;4.97;4.57;;;18.90;97.20;;;;;;1700591;29;20215;-73
2022/10/07 08:57:20;;;;;;;5.45;4.75;;;19.00;97.20;;;;;;1699709;29;20207;-73
2022/10/07 08:58:34;;;;;;;9.32;5.50;;;19.00;97.20;;;;;;1700375;29;20207;-73
2022/10/07 08:59:28;;;;;;;5.63;4.75;;;19.10;97.20;;;;;;1700551;29;20208;-73
2022/10/07 09:00:23;;;;;;;8.65;5.70;;;19.10;97.20;;;;;;1699962;29;20351;-74
2022/10/07 09:01:28;;;;;;;8.07;5.97;;;19.20;97.20;;;;;;1700148;29;20579;-73
2022/10/07 09:02:31;;;;;;;6.38;4.80;;;19.20;97.20;;;;;;1700553;29;20430;-73
2022/10/07 09:03:34;;;;;;;5.45;4.93;;;19.20;97.20;;;;;;1700559;29;20549;-73
2022/10/07 09:04:40;;;;;;;5.18;4.68;;;19.20;97.20;;;;;;1700657;29;20700;-73
2022/10/07 09:05:35;;;;;;;6.10;5.07;;;19.20;97.20;;;;;;1700896;29;20211;-73
2022/10/07 09:06:30;;;;;;;5.85;5.25;;;19.30;97.20;;;;;;1701666;29;20196;-73
2022/10/07 09:07:33;;;;;;;7.82;5.20;;;19.30;97.20;;;;;;1700932;29;20231;-74
2022/10/07 09:08:31;;;;;;;8.57;6.60;;;19.30;97.20;;;;;;1701563;29;20199;-73
2022/10/07 09:09:27;;;;;;;6.68;6.03;;;19.30;97.20;;;;;;1701469;29;20259;-74
2022/10/07 09:10:29;;;;;;;7.28;5.60;;;19.30;97.20;;;;;;1701390;29;20208;-73
2022/10/07 09:11:24;;;;;;;9.23;5.90;;;19.40;97.20;;;;;;1701128;29;20222;-73
2022/10/07 09:12:21;;;;;;;6.07;5.47;;;19.40;97.20;;;;;;1701534;29;20242;-73
2022/10/07 09:13:16;;;;;;;5.85;5.30;;;19.40;97.20;;;;;;1701642;29;20215;-73
2022/10/07 09:14:20;;;;;;;8.13;5.57;;;19.50;97.20;;;;;;1701602;29;20203;-73
2022/10/07 09:15:18;;;;;;;7.53;5.55;;;19.50;97.20;;;;;;1701556;29;20218;-73
2022/10/07 09:16:13;;;;;;;8.38;5.35;;;19.50;97.20;;;;;;1701619;29;20646;-73
2022/10/07 09:17:09;;;;;;;10.43;5.53;;;19.50;97.20;;;;;;1700936;29;20624;-73
2022/10/07 09:18:06;;;;;;;7.13;5.15;;;19.50;97.20;;;;;;1701425;29;20607;-73
2022/10/07 09:18:59;;;;;;;8.65;5.60;;;19.50;97.20;;;;;;1701524;29;20215;-73
2022/10/07 09:19:57;;;;;;;6.00;5.40;;;19.60;97.20;;;;;;1701726;29;20199;-73
2022/10/07 09:20:52;;;;;;;6.65;5.45;;;19.60;97.20;;;;;;1701207;29;20734;-73
2022/10/07 09:21:48;;;;;;;7.18;5.00;;;19.70;97.20;;;;;;1701521;29;20204;-74
2022/10/07 09:22:41;;;;;;;6.25;5.65;;;19.70;97.20;;;;;;1701583;29;20701;-73
2022/10/07 09:23:35;;;;;;;7.28;4.78;;;19.80;97.20;;;;;;1701515;29;20203;-73
2022/10/07 09:24:29;;;;;;;8.40;5.30;;;19.90;97.20;;;;;;1701462;29;20218;-73
2022/10/07 09:25:23;;;;;;;9.10;5.47;;;19.90;97.20;;;;;;1701447;29;20575;-73
2022/10/07 09:26:15;;;;;;;7.47;6.03;;;20.00;97.20;;;;;;1701639;29;20214;-73
2022/10/07 09:27:13;;;;;;;6.72;5.70;;;20.00;97.20;;;;;;1700386;29;20207;-73
2022/10/07 09:28:04;;;;;;;7.65;5.55;;;20.10;97.20;;;;;;1700868;29;20227;-73
2022/10/07 09:28:55;;;;;;;6.63;5.30;;;20.10;97.20;;;;;;1701288;29;20216;-73
2022/10/07 09:29:46;;;;;;;7.07;5.72;;;20.20;97.20;;;;;;1701505;29;20199;-73
2022/10/07 09:30:38;;;;;;;7.37;5.30;;;20.20;97.20;;;;;;1701165;29;20226;-73
2022/10/07 09:31:31;;;;;;;9.20;5.68;;;20.20;97.20;;;;;;1694971;29;20215;-73
2022/10/07 09:32:23;;;;;;;8.85;5.53;;;20.30;97.20;;;;;;1694859;29;20654;-73
2022/10/07 09:33:17;;;;;;;5.43;4.72;;;20.30;97.20;;;;;;1694867;29;20216;-73
2022/10/07 09:34:20;;;;;;;7.28;5.40;;;20.30;97.20;;;;;;1695002;29;20576;-74
2022/10/07 09:35:12;;;;;;;6.63;5.13;;;20.40;97.20;;;;;;1694995;29;20212;-73
2022/10/07 09:36:06;;;;;;;6.50;5.20;;;20.50;97.20;;;;;;1694970;29;20200;-73
2022/10/07 09:37:18;;;;;;;5.20;4.70;;;20.50;97.20;;;;;;1694166;29;20738;-74
2022/10/07 09:38:09;;;;;;;5.28;4.40;;;20.60;97.20;;;;;;1694836;29;20208;-73
2022/10/07 09:39:21;;;;;;;12.45;5.72;;;20.60;97.20;;;;;;1694917;29;20211;-74
2022/10/07 09:40:30;;;;;;;9.45;5.20;;;20.70;97.20;;;;;;1694898;29;20212;-73
2022/10/07 09:41:29;;;;;;;8.13;4.95;;;20.80;97.20;;;;;;1700375;29;20210;-73
2022/10/07 09:42:36;;;;;;;8.23;5.05;;;20.90;97.20;;;;;;1701329;29;20571;-73
2022/10/07 09:43:29;;;;;;;7.38;5.10;;;20.90;97.20;;;;;;1701524;29;20204;-73